Time;durP1;ratioP1;P1;durP2;ratioP2;P2;SDS_P1;SDS_P2;PMS_P1;PMS_P2;Temp;Humidity;BMP_temperature;BMP_pressure;BME280_temperature;BME280_humidity;BME280_pressure;Samples;Min_cycle;Max_cycle;Signal;HPM_P1;HPM_P2
2023/09/02 00:00:08;;;;;;;27.23;19.05;;;;;;;17.29;70.29;101128.88;683277;28;1150;-83
2023/09/02 00:00:37;;;;;;;29.38;19.92;;;;;;;17.30;70.07;101130.66;687072;28;1284;-83
2023/09/02 00:00:57;;;;;;;28.48;19.95;;;;;;;17.31;70.09;101124.50;686628;28;1005;-83
2023/09/02 00:01:18;;;;;;;25.20;19.03;;;;;;;17.32;70.15;101126.28;682404;29;1188;-83
2023/09/02 00:01:38;;;;;;;19.70;16.90;;;;;;;17.31;70.10;101124.50;682924;28;1769;-83
2023/09/02 00:01:59;;;;;;;19.75;17.08;;;;;;;17.33;70.17;101134.19;684564;28;1438;-83
2023/09/02 00:02:19;;;;;;;21.70;17.40;;;;;;;17.31;70.23;101135.03;680952;29;1413;-82
2023/09/02 00:02:40;;;;;;;27.10;18.63;;;;;;;17.31;70.09;101124.50;684672;28;1604;-83
2023/09/02 00:03:00;;;;;;;28.43;18.23;;;;;;;17.31;70.11;101124.50;687073;28;1189;-83
2023/09/02 00:03:21;;;;;;;28.13;17.58;;;;;;;17.28;70.30;101127.13;682541;29;1162;-83
2023/09/02 00:03:42;;;;;;;24.92;16.83;;;;;;;17.34;70.33;101129.81;683997;28;1719;-83
2023/09/02 00:04:03;;;;;;;25.45;17.85;;;;;;;17.33;70.22;101128.03;686901;28;1123;-83
2023/09/02 00:04:23;;;;;;;24.63;18.57;;;;;;;17.33;70.18;101128.03;687785;28;1256;-83
2023/09/02 00:04:44;;;;;;;24.48;19.33;;;;;;;17.32;70.40;101123.66;688456;28;1525;-83
2023/09/02 00:05:05;;;;;;;24.42;19.50;;;;;;;17.32;70.27;101129.78;685716;28;1263;-83
2023/09/02 00:05:25;;;;;;;27.25;20.15;;;;;;;17.34;70.26;101129.81;682802;28;1204;-83
2023/09/02 00:05:46;;;;;;;24.60;19.20;;;;;;;17.35;70.17;101132.47;681569;29;1822;-83
2023/09/02 00:06:06;;;;;;;25.08;18.75;;;;;;;17.34;70.51;101129.81;682126;28;1301;-82
2023/09/02 00:06:27;;;;;;;22.17;17.13;;;;;;;17.35;70.29;101128.94;679983;29;887;-82
2023/09/02 00:06:47;;;;;;;21.90;17.10;;;;;;;17.37;70.35;101129.81;677259;29;1462;-82
2023/09/02 00:07:08;;;;;;;19.47;16.17;;;;;;;17.40;70.41;101132.47;683118;28;1225;-83
2023/09/02 00:07:29;;;;;;;19.80;16.77;;;;;;;17.39;70.39;101128.06;685320;28;779;-83
2023/09/02 00:07:50;;;;;;;20.67;16.80;;;;;;;17.42;70.39;101128.09;685038;28;989;-82
2023/09/02 00:08:10;;;;;;;24.05;17.90;;;;;;;17.46;70.16;101127.22;687437;28;1519;-82
2023/09/02 00:08:31;;;;;;;26.65;18.95;;;;;;;17.45;70.27;101125.44;687956;28;1982;-83
2023/09/02 00:08:52;;;;;;;29.40;19.77;;;;;;;17.47;70.14;101125.47;685820;28;1231;-83
2023/09/02 00:09:13;;;;;;;30.38;20.92;;;;;;;17.47;70.01;101126.38;681737;28;1909;-83
2023/09/02 00:09:33;;;;;;;34.30;21.77;;;;;;;17.54;70.24;101128.13;685267;28;942;-82
2023/09/02 00:09:54;;;;;;;33.47;21.83;;;;;;;17.53;70.16;101126.38;681897;29;1352;-83
2023/09/02 00:10:14;;;;;;;31.47;22.10;;;;;;;17.51;70.12;101122.84;684924;28;1314;-83
2023/09/02 00:10:35;;;;;;;28.80;22.10;;;;;;;17.56;70.11;101130.78;682595;29;1368;-83
2023/09/02 00:10:56;;;;;;;27.88;22.50;;;;;;;17.56;70.09;101132.56;684884;28;1216;-83
2023/09/02 00:11:16;;;;;;;26.57;21.20;;;;;;;17.58;70.34;101126.38;685115;28;1225;-83
2023/09/02 00:11:37;;;;;;;34.42;21.88;;;;;;;17.56;70.13;101120.22;682598;29;1018;-82
2023/09/02 00:11:57;;;;;;;35.30;21.30;;;;;;;17.64;70.08;101130.84;679706;29;1006;-83
2023/09/02 00:12:18;;;;;;;34.90;21.05;;;;;;;17.63;70.06;101135.22;679406;29;1624;-82
2023/09/02 00:12:38;;;;;;;27.67;19.57;;;;;;;17.66;70.06;101134.34;677911;29;1659;-83
2023/09/02 00:13:00;;;;;;;27.67;19.30;;;;;;;17.66;69.97;101131.72;679830;29;1094;-83
2023/09/02 00:13:21;;;;;;;26.58;19.05;;;;;;;17.65;70.12;101135.25;681565;29;1225;-82
2023/09/02 00:13:42;;;;;;;28.40;19.52;;;;;;;17.68;70.23;101138.78;680337;29;1283;-83
2023/09/02 00:14:02;;;;;;;28.98;20.02;;;;;;;17.68;70.07;101129.97;682410;28;1269;-83
2023/09/02 00:14:23;;;;;;;28.33;20.40;;;;;;;17.66;70.10;101135.22;681854;29;861;-83
2023/09/02 00:14:44;;;;;;;30.40;20.23;;;;;;;17.66;70.30;101129.06;682235;29;1264;-83
2023/09/02 00:15:05;;;;;;;27.80;19.83;;;;;;;17.72;70.08;101131.75;684968;28;1171;-83
2023/09/02 00:15:26;;;;;;;28.13;19.42;;;;;;;17.68;69.99;101120.28;687948;28;1382;-83
2023/09/02 00:15:46;;;;;;;26.48;20.02;;;;;;;17.70;70.31;101122.91;687030;28;998;-83
2023/09/02 00:16:08;;;;;;;24.43;19.93;;;;;;;17.71;69.90;101127.34;685107;28;1029;-83
2023/09/02 00:16:28;;;;;;;23.45;20.05;;;;;;;17.72;70.17;101126.47;682690;28;878;-82
2023/09/02 00:16:49;;;;;;;24.50;20.03;;;;;;;17.75;70.11;101129.09;681779;29;1645;-83
2023/09/02 00:17:10;;;;;;;27.30;20.38;;;;;;;17.75;70.13;101131.75;685670;28;1372;-83
2023/09/02 00:17:32;;;;;;;34.45;21.40;;;;;;;17.79;70.21;101133.53;685401;28;827;-82
2023/09/02 00:17:52;;;;;;;39.38;23.42;;;;;;;17.78;70.05;101136.16;682008;28;1489;-83
2023/09/02 00:18:13;;;;;;;49.17;23.60;;;;;;;17.82;70.09;101135.28;684803;28;1054;-83
2023/09/02 00:18:33;;;;;;;53.80;24.63;;;;;;;17.76;70.02;101120.31;681750;29;1240;-83
2023/09/02 00:18:54;;;;;;;56.27;23.67;;;;;;;17.82;70.07;101132.63;679526;29;1758;-83
2023/09/02 00:19:14;;;;;;;45.25;23.25;;;;;;;17.83;69.97;101125.63;682867;29;1110;-83
2023/09/02 00:19:35;;;;;;;35.08;21.45;;;;;;;17.83;69.88;101137.06;688146;28;1436;-83
2023/09/02 00:19:56;;;;;;;31.05;22.17;;;;;;;17.85;69.99;101132.66;690029;28;1420;-83
2023/09/02 00:20:18;;;;;;;37.53;22.87;;;;;;;17.88;69.99;101123.88;686356;28;1398;-82
2023/09/02 00:20:38;;;;;;;37.15;23.65;;;;;;;17.87;70.14;101133.56;687075;28;1216;-82
2023/09/02 00:20:59;;;;;;;34.28;22.65;;;;;;;17.84;70.24;101119.47;690082;28;1255;-83
2023/09/02 00:22:15;;;;;;;28.13;21.80;;;;;;;17.90;69.97;101124.75;685038;28;1479;-83
2023/09/02 00:22:36;;;;;;;38.05;23.63;;;;;;;17.90;69.98;101124.75;687160;28;1299;-83
2023/09/02 00:22:57;;;;;;;33.65;22.58;;;;;;;17.88;70.11;101118.59;685066;28;1177;-82
2023/09/02 00:27:17;;;;;;;26.88;21.60;;;;;;;17.94;70.05;101142.34;692044;28;1264;-82
2023/09/02 00:27:40;;;;;;;26.00;20.48;;;;;;;17.93;70.01;101140.59;690245;28;867;-83
2023/09/02 00:28:01;;;;;;;27.57;21.27;;;;;;;17.90;70.02;101132.69;687892;28;1004;-83
2023/09/02 00:28:21;;;;;;;29.42;21.75;;;;;;;17.93;70.35;101132.69;687630;28;1195;-82
2023/09/02 00:28:42;;;;;;;31.15;23.42;;;;;;;17.92;70.03;101138.84;684193;28;1979;-83
2023/09/02 00:29:03;;;;;;;31.57;22.97;;;;;;;17.93;70.00;101140.59;684563;28;1183;-83
2023/09/02 00:29:24;;;;;;;30.40;22.02;;;;;;;17.95;70.13;101136.22;687884;28;1101;-83
2023/09/02 00:29:44;;;;;;;27.00;20.90;;;;;;;17.93;70.07;101130.03;684398;28;1738;-82
2023/09/02 00:30:05;;;;;;;25.83;19.97;;;;;;;17.95;70.04;101146.78;684165;28;1151;-82
2023/09/02 00:30:26;;;;;;;24.60;20.50;;;;;;;17.94;70.11;101142.34;683253;28;1479;-82
2023/09/02 00:30:47;;;;;;;27.23;21.38;;;;;;;17.93;70.07;101132.69;684433;28;1210;-83
2023/09/02 00:31:07;;;;;;;29.20;22.60;;;;;;;17.99;69.99;101145.00;682975;28;1090;-83
2023/09/02 00:31:29;;;;;;;30.92;22.77;;;;;;;17.97;70.07;101142.38;681330;28;1169;-82
2023/09/02 00:31:51;;;;;;;29.13;22.20;;;;;;;17.99;70.01;101145.91;683280;28;1831;-83
2023/09/02 00:32:11;;;;;;;27.73;21.60;;;;;;;17.97;70.13;101131.84;686330;28;1243;-83
2023/09/02 00:32:33;;;;;;;28.58;22.75;;;;;;;18.02;70.05;101142.41;685288;28;816;-82
2023/09/02 00:32:54;;;;;;;30.25;23.42;;;;;;;18.00;69.97;101131.81;683414;28;1601;-83
2023/09/02 00:33:14;;;;;;;32.50;24.30;;;;;;;18.00;69.94;101134.47;683433;28;1197;-83
2023/09/02 00:33:35;;;;;;;30.20;23.17;;;;;;;18.03;70.05;101137.13;685243;28;1041;-83
2023/09/02 00:33:55;;;;;;;28.17;23.00;;;;;;;18.03;70.13;101142.41;682633;28;1800;-83
2023/09/02 00:34:16;;;;;;;25.08;21.40;;;;;;;18.01;70.10;101141.50;685146;28;1108;-82
2023/09/02 00:34:37;;;;;;;25.10;21.40;;;;;;;17.99;69.88;101135.34;682636;28;1181;-83
2023/09/02 00:34:58;;;;;;;25.92;21.77;;;;;;;18.03;70.01;101142.41;682110;29;1461;-83
2023/09/02 00:35:19;;;;;;;29.30;23.07;;;;;;;18.01;70.06;101135.38;678970;29;1228;-83
2023/09/02 00:35:39;;;;;;;28.92;22.35;;;;;;;18.00;69.95;101134.47;680407;29;976;-83
2023/09/02 00:36:00;;;;;;;27.40;21.40;;;;;;;18.02;70.06;101135.34;682275;28;1573;-82
2023/09/02 00:36:21;;;;;;;24.27;20.60;;;;;;;18.04;70.10;101138.91;679569;29;1570;-82
2023/09/02 00:36:41;;;;;;;24.60;20.60;;;;;;;18.03;70.21;101126.56;682395;29;1386;-83
2023/09/02 00:37:02;;;;;;;24.30;20.63;;;;;;;18.05;70.15;101135.38;685154;28;1037;-83
2023/09/02 00:37:22;;;;;;;27.23;20.80;;;;;;;18.03;70.20;101130.97;686694;28;1504;-83
2023/09/02 00:37:43;;;;;;;27.83;21.17;;;;;;;18.02;70.23;101130.06;690294;28;1128;-83
2023/09/02 00:38:04;;;;;;;28.57;21.93;;;;;;;18.05;70.21;101130.09;687486;28;1274;-83
2023/09/02 00:38:24;;;;;;;28.05;22.67;;;;;;;18.06;70.05;101131.84;684856;28;1643;-83
2023/09/02 00:38:45;;;;;;;28.20;23.15;;;;;;;18.06;70.06;101134.50;682103;29;1164;-82
2023/09/02 00:39:06;;;;;;;30.37;23.37;;;;;;;18.04;69.97;101133.63;682236;29;1276;-83
2023/09/02 00:39:27;;;;;;;37.40;22.98;;;;;;;18.07;70.20;101130.97;681890;29;1688;-83
2023/09/02 00:39:47;;;;;;;37.25;22.63;;;;;;;18.08;70.16;101135.38;681888;29;1176;-83
2023/09/02 00:40:13;;;;;;;34.80;21.77;;;;;;;18.06;70.36;101121.28;685621;28;1159;-83
2023/09/02 00:40:35;;;;;;;25.35;20.55;;;;;;;18.06;70.13;101128.31;687367;28;1240;-83
2023/09/02 00:41:02;;;;;;;23.40;19.55;;;;;;;18.09;70.31;101133.63;684722;28;1081;-82
2023/09/02 00:41:43;;;;;;;23.52;19.75;;;;;;;18.07;70.22;101122.19;685640;28;2177;-83
2023/09/02 00:42:06;;;;;;;25.27;19.88;;;;;;;18.12;70.15;101135.41;684492;28;1079;-83
2023/09/02 00:42:30;;;;;;;24.30;19.42;;;;;;;18.12;70.16;101127.47;679926;29;927;-83
2023/09/02 00:42:53;;;;;;;21.63;19.33;;;;;;;18.12;70.27;101127.47;684786;28;1465;-83
2023/09/02 00:43:14;;;;;;;21.13;18.75;;;;;;;18.14;70.32;101128.34;684041;28;1244;-83
2023/09/02 00:43:34;;;;;;;20.80;18.60;;;;;;;18.11;70.28;101112.47;682089;29;1105;-83
2023/09/02 00:43:58;;;;;;;22.13;18.70;;;;;;;18.12;70.54;101119.56;686222;28;1466;-83
2023/09/02 00:44:19;;;;;;;21.38;18.92;;;;;;;18.14;70.29;101123.97;682516;29;1102;-82
2023/09/02 00:44:39;;;;;;;21.70;18.67;;;;;;;18.14;70.29;101117.78;685117;28;1254;-83
2023/09/02 00:45:00;;;;;;;23.15;18.52;;;;;;;18.18;70.48;101128.38;681999;29;2014;-83
2023/09/02 00:45:22;;;;;;;23.05;18.73;;;;;;;18.19;70.16;101118.72;685144;28;1097;-82
2023/09/02 00:45:43;;;;;;;29.08;20.25;;;;;;;18.19;70.31;101126.63;679079;29;1272;-83
2023/09/02 00:46:05;;;;;;;28.70;21.00;;;;;;;18.18;70.17;101127.50;679486;29;1613;-83
2023/09/02 00:46:25;;;;;;;28.02;21.75;;;;;;;18.16;70.27;101127.50;682592;29;1226;-83
2023/09/02 00:46:46;;;;;;;24.40;20.70;;;;;;;18.21;70.21;101135.44;676994;29;1378;-82
2023/09/02 00:47:07;;;;;;;21.90;19.55;;;;;;;18.18;70.26;101114.28;682083;28;1668;-82
2023/09/02 00:47:28;;;;;;;20.67;18.52;;;;;;;18.22;70.17;101126.63;687531;28;1207;-82
2023/09/02 00:47:49;;;;;;;21.52;19.23;;;;;;;18.21;70.31;101123.09;682630;28;1334;-83
2023/09/02 00:48:10;;;;;;;21.55;19.25;;;;;;;18.17;70.22;101121.34;683543;28;1481;-82
2023/09/02 00:48:32;;;;;;;21.08;18.88;;;;;;;18.20;70.17;101117.84;679837;29;1970;-82
2023/09/02 00:48:53;;;;;;;20.10;18.10;;;;;;;18.22;70.34;101124.00;679488;29;1315;-83
2023/09/02 00:49:14;;;;;;;20.15;18.08;;;;;;;18.22;70.29;101121.34;683795;28;1009;-83
2023/09/02 00:49:34;;;;;;;21.30;19.00;;;;;;;18.18;70.32;101124.84;687662;28;1426;-83
2023/09/02 00:49:57;;;;;;;23.08;18.98;;;;;;;18.22;70.32;101127.50;690100;28;1386;-83
2023/09/02 00:50:17;;;;;;;22.25;19.02;;;;;;;18.19;70.17;101124.00;685026;28;1146;-82
2023/09/02 00:50:38;;;;;;;23.83;19.38;;;;;;;18.20;70.33;101128.41;682571;29;979;-83
2023/09/02 00:50:59;;;;;;;22.33;19.30;;;;;;;18.21;70.31;101127.50;683467;28;1128;-83
2023/09/02 00:51:19;;;;;;;24.83;20.23;;;;;;;18.19;70.30;101129.28;683776;28;1413;-82
2023/09/02 00:51:40;;;;;;;25.40;20.77;;;;;;;18.17;70.30;101117.81;687874;28;1253;-83
2023/09/02 00:52:00;;;;;;;27.17;21.10;;;;;;;18.18;70.34;101124.84;681989;29;1188;-82
2023/09/02 00:52:21;;;;;;;26.25;20.80;;;;;;;18.18;70.09;101125.75;684721;28;1299;-82
2023/09/02 00:52:42;;;;;;;22.23;19.25;;;;;;;18.23;70.33;101128.38;679722;29;1262;-83
2023/09/02 00:53:02;;;;;;;22.77;19.63;;;;;;;18.21;70.40;101124.88;682179;28;1080;-83
2023/09/02 00:53:24;;;;;;;22.80;19.83;;;;;;;18.21;70.30;101116.94;685009;28;1085;-82
2023/09/02 00:53:47;;;;;;;27.95;20.80;;;;;;;18.24;70.33;101124.00;685048;28;1121;-82
2023/09/02 00:54:08;;;;;;;37.92;20.30;;;;;;;18.27;70.39;101132.81;684799;28;1315;-82
2023/09/02 00:54:31;;;;;;;36.63;20.30;;;;;;;18.23;70.36;101128.38;685507;28;1482;-82
2023/09/02 00:54:51;;;;;;;34.00;20.25;;;;;;;18.28;70.32;101136.31;682353;28;1102;-83
2023/09/02 00:55:12;;;;;;;22.73;20.33;;;;;;;18.26;70.35;101120.47;686353;28;1180;-83
2023/09/02 00:55:33;;;;;;;21.73;19.48;;;;;;;18.26;70.29;101123.09;683893;28;1258;-82
2023/09/02 00:55:54;;;;;;;22.92;19.02;;;;;;;18.27;70.15;101121.34;684528;28;1786;-83
2023/09/02 00:56:15;;;;;;;25.45;19.25;;;;;;;18.30;70.46;101135.44;684125;28;1115;-82
2023/09/02 00:56:39;;;;;;;27.15;19.55;;;;;;;18.29;70.34;101124.88;685015;28;1846;-83
2023/09/02 00:57:00;;;;;;;27.13;20.30;;;;;;;18.28;70.32;101125.75;684691;28;1388;-82
2023/09/02 00:57:21;;;;;;;27.75;20.45;;;;;;;18.28;70.30;101126.66;682189;28;1267;-83
2023/09/02 00:57:42;;;;;;;26.85;20.13;;;;;;;18.32;70.34;101127.53;684912;28;1310;-83
2023/09/02 00:58:03;;;;;;;29.33;20.10;;;;;;;18.31;70.44;101124.00;684868;28;1027;-82
2023/09/02 00:58:24;;;;;;;26.88;19.58;;;;;;;18.33;70.39;101130.16;684917;28;1246;-83
2023/09/02 00:58:44;;;;;;;26.45;20.30;;;;;;;18.33;70.22;101130.16;684822;28;1090;-82
2023/09/02 00:59:06;;;;;;;26.50;20.58;;;;;;;18.33;70.25;101127.50;683445;28;1588;-83
2023/09/02 00:59:26;;;;;;;25.27;20.80;;;;;;;18.33;70.47;101130.16;682314;29;1353;-83
2023/09/02 00:59:47;;;;;;;25.02;20.20;;;;;;;18.34;70.17;101129.28;682283;29;1050;-83
2023/09/02 01:00:09;;;;;;;23.83;20.13;;;;;;;18.34;70.39;101129.28;681986;28;1866;-83
2023/09/02 01:00:29;;;;;;;24.88;20.15;;;;;;;18.34;70.17;101131.06;680001;29;895;-82
2023/09/02 01:00:50;;;;;;;26.45;20.20;;;;;;;18.38;70.16;101137.22;678619;29;1325;-83
2023/09/02 01:01:11;;;;;;;26.57;20.27;;;;;;;18.37;70.32;101136.34;681921;29;1407;-82
2023/09/02 01:01:35;;;;;;;26.95;20.10;;;;;;;18.39;70.38;101133.69;677365;29;1301;-83
2023/09/02 01:01:58;;;;;;;25.88;19.30;;;;;;;18.38;70.21;101139.88;679587;29;1192;-83
2023/09/02 01:02:21;;;;;;;23.25;18.42;;;;;;;18.35;70.24;101122.25;682560;28;1423;-82
2023/09/02 01:02:43;;;;;;;22.20;17.95;;;;;;;18.32;70.37;101133.69;679568;29;1041;-83
2023/09/02 01:03:04;;;;;;;22.02;18.50;;;;;;;18.34;70.47;101137.19;681806;29;1438;-83
2023/09/02 01:03:25;;;;;;;23.33;18.80;;;;;;;18.33;70.31;101139.88;685145;28;1261;-83
2023/09/02 01:03:45;;;;;;;22.75;19.05;;;;;;;18.29;70.37;101130.16;679661;29;1165;-83
2023/09/02 01:04:06;;;;;;;21.67;19.30;;;;;;;18.32;70.38;101136.31;682393;28;1111;-82
2023/09/02 01:04:27;;;;;;;21.08;18.88;;;;;;;18.31;70.32;101131.94;682370;29;1275;-83
2023/09/02 01:04:49;;;;;;;20.92;18.67;;;;;;;18.31;70.31;101142.50;681437;29;1763;-82
2023/09/02 01:05:10;;;;;;;21.08;18.38;;;;;;;18.30;70.42;101135.44;682137;28;1286;-82
2023/09/02 01:05:32;;;;;;;27.67;19.43;;;;;;;18.36;70.45;101150.44;682252;29;1375;-82
2023/09/02 01:05:53;;;;;;;28.73;20.27;;;;;;;18.36;70.51;101150.44;684458;28;1180;-84
2023/09/02 01:06:14;;;;;;;29.30;20.20;;;;;;;18.35;70.34;101146.91;686729;28;1228;-82
2023/09/02 01:06:35;;;;;;;23.90;19.60;;;;;;;18.34;70.28;101139.84;684692;28;1460;-82
2023/09/02 01:06:56;;;;;;;23.33;19.25;;;;;;;18.38;70.19;101147.78;687366;28;1323;-83
2023/09/02 01:07:18;;;;;;;26.30;20.15;;;;;;;18.36;70.29;101146.03;685622;28;1118;-82
2023/09/02 01:07:39;;;;;;;25.77;20.00;;;;;;;18.34;70.32;101147.78;682476;28;1277;-82
2023/09/02 01:08:03;;;;;;;22.38;19.40;;;;;;;18.32;70.10;101141.59;687515;28;1390;-82
2023/09/02 01:08:23;;;;;;;21.17;18.52;;;;;;;18.34;70.31;101145.13;688793;28;1968;-82
2023/09/02 01:08:44;;;;;;;21.70;18.37;;;;;;;18.34;70.24;101136.34;680411;29;1922;-83
2023/09/02 01:09:05;;;;;;;24.20;18.52;;;;;;;18.35;70.38;101144.28;683011;28;1302;-83
2023/09/02 01:09:26;;;;;;;23.55;18.40;;;;;;;18.33;70.37;101140.72;682545;28;1251;-83
2023/09/02 01:09:47;;;;;;;21.33;18.02;;;;;;;18.38;70.27;101142.50;678413;29;1590;-83
2023/09/02 01:10:08;;;;;;;19.38;17.38;;;;;;;18.40;70.46;101151.31;681352;28;1061;-83
2023/09/02 01:10:30;;;;;;;19.83;17.73;;;;;;;18.40;70.39;101153.94;681095;29;1246;-83
2023/09/02 01:10:52;;;;;;;23.70;18.05;;;;;;;18.37;70.51;101146.91;679324;29;1917;-82
2023/09/02 01:11:12;;;;;;;24.63;18.45;;;;;;;18.41;70.32;101145.16;679586;29;1138;-83
2023/09/02 01:11:33;;;;;;;22.73;17.52;;;;;;;18.42;70.54;101146.91;685247;28;1402;-83
2023/09/02 01:11:54;;;;;;;19.92;17.63;;;;;;;18.42;70.22;101141.63;681830;28;1443;-83
2023/09/02 01:12:14;;;;;;;19.60;17.50;;;;;;;18.38;70.22;101143.38;686788;28;1114;-82
2023/09/02 01:12:35;;;;;;;20.92;18.73;;;;;;;18.41;70.21;101147.78;682307;29;1297;-83
2023/09/02 01:12:56;;;;;;;20.90;18.40;;;;;;;18.43;70.30;101149.56;679260;29;1658;-83
2023/09/02 01:13:17;;;;;;;25.20;18.93;;;;;;;18.39;70.28;101138.97;680304;28;1300;-82
2023/09/02 01:13:38;;;;;;;25.60;18.45;;;;;;;18.37;70.11;101141.63;682942;28;1774;-82
2023/09/02 01:14:00;;;;;;;23.08;19.00;;;;;;;18.43;70.27;101146.91;684229;28;1446;-83
2023/09/02 01:14:22;;;;;;;21.77;19.23;;;;;;;18.41;70.27;101145.16;686298;28;1368;-83
2023/09/02 01:14:42;;;;;;;21.35;19.15;;;;;;;18.40;70.37;101143.38;679602;29;1047;-83
2023/09/02 01:15:03;;;;;;;20.25;18.15;;;;;;;18.44;70.32;101142.53;682490;28;1477;-83
2023/09/02 01:15:24;;;;;;;18.73;16.77;;;;;;;18.41;70.26;101140.75;685132;28;992;-82
2023/09/02 01:15:45;;;;;;;20.17;17.35;;;;;;;18.44;70.31;101153.09;685956;28;1215;-83
2023/09/02 01:16:06;;;;;;;20.88;18.00;;;;;;;18.43;70.32;101141.63;683679;28;1658;-83
2023/09/02 01:16:26;;;;;;;20.67;18.45;;;;;;;18.46;70.31;101141.66;681554;29;1519;-82
2023/09/02 01:16:47;;;;;;;20.90;18.60;;;;;;;18.43;70.34;101139.00;687374;28;1237;-83
2023/09/02 01:17:08;;;;;;;21.73;19.10;;;;;;;18.46;70.36;101148.69;688280;28;1224;-82
2023/09/02 01:17:29;;;;;;;23.63;19.38;;;;;;;18.48;70.24;101144.28;685038;28;1680;-82
2023/09/02 01:17:49;;;;;;;23.95;19.52;;;;;;;18.48;70.19;101144.28;679511;29;1413;-82
2023/09/02 01:18:10;;;;;;;23.93;19.73;;;;;;;18.49;70.25;101151.31;682214;28;1301;-82
2023/09/02 01:18:33;;;;;;;24.23;19.23;;;;;;;18.45;70.37;101139.84;681657;29;1399;-82
2023/09/02 01:18:53;;;;;;;25.50;19.17;;;;;;;18.46;70.26;101146.03;682071;29;1223;-82
2023/09/02 01:19:17;;;;;;;22.67;18.10;;;;;;;18.47;70.46;101142.50;685125;28;1223;-82
2023/09/02 01:19:39;;;;;;;21.50;17.75;;;;;;;18.48;70.40;101150.47;679082;29;1427;-83
2023/09/02 01:20:05;;;;;;;22.23;17.80;;;;;;;18.46;70.39;101151.31;679930;29;1183;-82
2023/09/02 01:20:47;;;;;;;22.17;18.10;;;;;;;18.45;70.40;101144.28;677042;29;1933;-82
2023/09/02 01:21:11;;;;;;;20.80;18.58;;;;;;;18.46;70.28;101146.03;682013;29;1248;-83
2023/09/02 01:21:50;;;;;;;20.95;18.75;;;;;;;18.45;70.41;101146.94;685064;28;866;-83
2023/09/02 01:22:39;;;;;;;19.05;17.15;;;;;;;18.47;70.29;101153.09;680702;28;1377;-83
2023/09/02 01:23:23;;;;;;;17.30;15.30;;;;;;;18.47;70.41;101147.81;682214;29;1120;-82
2023/09/02 01:23:56;;;;;;;18.77;16.05;;;;;;;18.49;70.44;101151.31;676604;29;1850;-84
2023/09/02 01:24:16;;;;;;;19.10;16.52;;;;;;;18.50;70.54;101156.63;681267;29;1278;-83
2023/09/02 01:25:00;;;;;;;22.58;17.50;;;;;;;18.50;70.36;101155.72;682042;29;1208;-82
2023/09/02 01:25:26;;;;;;;22.10;17.95;;;;;;;18.51;70.47;101157.50;670790;29;1561;-82
2023/09/02 01:26:10;;;;;;;19.90;17.45;;;;;;;18.51;70.38;101149.59;668447;29;1443;-83
2023/09/02 01:26:36;;;;;;;21.20;18.90;;;;;;;18.51;70.51;101152.22;681972;29;1336;-83
2023/09/02 01:27:06;;;;;;;22.42;19.33;;;;;;;18.49;70.41;101154.84;676546;29;1542;-83
2023/09/02 01:27:48;;;;;;;24.08;19.65;;;;;;;18.48;70.50;101144.28;680811;29;1430;-83
2023/09/02 01:28:16;;;;;;;21.92;19.00;;;;;;;18.46;70.49;101140.75;681957;29;1117;-83
2023/09/02 01:28:40;;;;;;;21.63;19.20;;;;;;;18.44;70.42;101146.03;685006;28;1902;-83
2023/09/02 01:29:06;;;;;;;22.27;19.58;;;;;;;18.50;70.55;101147.78;687599;28;1227;-82
2023/09/02 01:29:31;;;;;;;22.13;19.83;;;;;;;18.49;70.42;101149.56;682508;29;2052;-82
2023/09/02 01:30:08;;;;;;;21.75;19.45;;;;;;;18.49;70.60;101143.38;686576;28;1074;-83
2023/09/02 01:30:33;;;;;;;20.35;18.00;;;;;;;18.49;70.61;101148.69;684568;28;1940;-82
2023/09/02 01:30:55;;;;;;;19.05;17.20;;;;;;;18.46;70.61;101143.41;684707;28;1091;-82
2023/09/02 01:31:17;;;;;;;19.63;17.58;;;;;;;18.51;70.63;101149.59;684823;28;1185;-82
2023/09/02 01:31:39;;;;;;;20.05;17.42;;;;;;;18.50;70.61;101139.88;682356;28;1358;-82
2023/09/02 01:32:01;;;;;;;19.73;17.60;;;;;;;18.48;70.50;101142.53;679499;29;1259;-82
2023/09/02 01:32:25;;;;;;;20.17;17.92;;;;;;;18.54;70.44;101144.28;682713;28;1510;-82
2023/09/02 01:32:49;;;;;;;20.30;18.10;;;;;;;18.52;70.38;101137.22;684959;28;968;-82
2023/09/02 01:33:10;;;;;;;22.33;19.42;;;;;;;18.55;70.42;101139.91;683065;28;1437;-83
2023/09/02 01:33:31;;;;;;;23.38;19.70;;;;;;;18.52;70.50;101138.13;686382;28;1825;-83
2023/09/02 01:33:53;;;;;;;22.48;19.23;;;;;;;18.54;70.50;101139.00;687335;28;1134;-83
2023/09/02 01:34:16;;;;;;;23.23;18.90;;;;;;;18.51;70.48;101144.31;686774;28;1048;-84
2023/09/02 01:34:37;;;;;;;20.92;18.50;;;;;;;18.45;70.37;101139.84;685684;28;1328;-83
2023/09/02 01:35:04;;;;;;;22.08;19.15;;;;;;;18.53;70.47;101152.19;687423;28;1227;-83
2023/09/02 01:35:29;;;;;;;22.70;19.02;;;;;;;18.52;70.49;101148.69;687266;28;1439;-83
2023/09/02 01:35:50;;;;;;;22.05;19.20;;;;;;;18.53;70.43;101152.19;684504;28;1457;-83
2023/09/02 01:36:12;;;;;;;24.08;19.40;;;;;;;18.51;70.46;101144.31;685504;28;1220;-84
2023/09/02 01:36:35;;;;;;;24.02;19.48;;;;;;;18.50;70.46;101142.50;682279;28;1385;-83
2023/09/02 01:36:59;;;;;;;25.20;19.70;;;;;;;18.50;70.41;101143.41;684705;28;1414;-83
2023/09/02 01:37:22;;;;;;;24.35;19.58;;;;;;;18.50;70.52;101142.50;682256;29;1227;-83
2023/09/02 01:37:45;;;;;;;25.52;19.75;;;;;;;18.53;70.55;101150.47;682459;29;1060;-83
2023/09/02 01:38:07;;;;;;;24.48;19.90;;;;;;;18.53;70.42;101149.56;684659;28;1612;-83
2023/09/02 01:38:31;;;;;;;24.85;20.45;;;;;;;18.50;70.50;101147.78;687766;28;986;-83
2023/09/02 01:38:53;;;;;;;22.77;19.73;;;;;;;18.47;70.43;101140.78;687332;28;1776;-83
2023/09/02 01:39:20;;;;;;;21.83;19.02;;;;;;;18.51;70.54;101149.59;689321;28;1137;-83
2023/09/02 01:39:42;;;;;;;21.27;18.95;;;;;;;18.52;70.41;101151.34;682315;28;1177;-83
2023/09/02 01:40:07;;;;;;;21.02;18.83;;;;;;;18.54;70.51;101151.31;682991;28;1120;-84
2023/09/02 01:40:29;;;;;;;20.80;18.33;;;;;;;18.51;70.49;101149.59;679831;28;1323;-83
2023/09/02 01:40:51;;;;;;;20.88;17.35;;;;;;;18.53;70.59;101150.47;681228;29;1672;-83
2023/09/02 01:41:12;;;;;;;23.05;17.50;;;;;;;18.50;70.57;101153.97;681247;29;1793;-83
2023/09/02 01:41:33;;;;;;;23.88;17.02;;;;;;;18.49;70.52;101148.69;684703;28;1411;-83
2023/09/02 01:41:54;;;;;;;26.45;17.77;;;;;;;18.53;70.61;101153.09;687157;28;1308;-84
2023/09/02 01:42:15;;;;;;;25.17;17.98;;;;;;;18.54;70.47;101138.09;684448;28;1311;-83
2023/09/02 01:42:37;;;;;;;25.50;18.50;;;;;;;18.56;70.64;101145.16;682114;28;1364;-85
2023/09/02 01:42:58;;;;;;;29.58;17.95;;;;;;;18.57;70.43;101160.13;686059;28;1620;-83
2023/09/02 01:43:20;;;;;;;33.75;17.65;;;;;;;18.61;70.49;101146.06;686427;28;1314;-83
2023/09/02 01:43:42;;;;;;;35.15;17.90;;;;;;;18.59;70.39;101145.19;684946;28;1031;-83
2023/09/02 01:44:05;;;;;;;24.63;19.00;;;;;;;18.61;70.37;101146.06;684956;28;1503;-83
2023/09/02 01:44:26;;;;;;;24.50;19.55;;;;;;;18.62;70.31;101152.19;682090;29;803;-83
2023/09/02 01:44:47;;;;;;;24.65;18.83;;;;;;;18.62;70.25;101142.53;684986;28;1057;-83
2023/09/02 01:45:10;;;;;;;22.48;18.60;;;;;;;18.62;70.10;101147.81;685830;28;1127;-83
2023/09/02 01:45:34;;;;;;;23.95;19.52;;;;;;;18.60;70.29;101136.38;688619;28;1300;-83
2023/09/02 01:45:55;;;;;;;24.35;19.75;;;;;;;18.63;70.36;101140.78;687526;28;1377;-83
2023/09/02 01:46:18;;;;;;;26.75;19.42;;;;;;;18.63;70.30;101144.28;686058;28;1344;-83
2023/09/02 01:46:39;;;;;;;26.05;19.02;;;;;;;18.64;70.30;101146.03;682531;28;1393;-83
2023/09/02 01:47:01;;;;;;;26.23;18.35;;;;;;;18.65;70.28;101141.66;690266;28;1186;-84
2023/09/02 01:47:22;;;;;;;21.38;17.08;;;;;;;18.64;70.48;101156.63;685169;28;936;-83
2023/09/02 01:47:43;;;;;;;21.55;16.80;;;;;;;18.64;70.22;101148.69;681568;29;1728;-83
2023/09/02 01:48:06;;;;;;;18.35;16.30;;;;;;;18.67;70.22;101145.16;682519;28;1121;-83
2023/09/02 01:48:28;;;;;;;20.02;17.33;;;;;;;18.66;70.16;101147.81;685084;28;889;-84